< < Back
Terminal Aerodrome Forecast


Current Version              Previous Versions:   1  2  3  4  5  6  7  8  9  

Terminal Aerodrome Forecast

498
FTUS42 KJAX 291100
TAFSSI
TAF
KSSI 291120Z 2912/3012 VRB03KT P6SM SKC
     FM291600 12010KT P6SM SCT040 SCT070
     FM300000 13008KT P6SM FEW030 SCT070
     FM300600 18004KT P6SM FEW070 SCT250=

Latest METAR

117
SAUS70 KWBC 291800 RRE
MTRSSI
METAR KSSI 291753Z AUTO 10011KT 10SM CLR 30/24 A3007 RMK AO2 SLP182
T03000239 10306 20233 56005


USA.gov is the U.S. government's official web portal to all federal, state and local government web resources and services.